sensor_id;sensor_type;location;lat;lon;timestamp;P1;durP1;ratioP1;P2;durP2;ratioP2
48002;SDS011;33768;48.578;11.574;2023-02-28T00:02:06;3.70;;;3.00;;
48002;SDS011;33768;48.578;11.574;2023-02-28T00:05:12;3.50;;;2.60;;
48002;SDS011;33768;48.578;11.574;2023-02-28T00:08:18;3.33;;;2.57;;
48002;SDS011;33768;48.578;11.574;2023-02-28T00:11:22;4.33;;;2.63;;
48002;SDS011;33768;48.578;11.574;2023-02-28T00:14:26;4.10;;;2.90;;
48002;SDS011;33768;48.578;11.574;2023-02-28T00:17:31;7.13;;;3.00;;
48002;SDS011;33768;48.578;11.574;2023-02-28T00:20:35;4.03;;;2.87;;
48002;SDS011;33768;48.578;11.574;2023-02-28T00:23:39;6.60;;;2.80;;
48002;SDS011;33768;48.578;11.574;2023-02-28T00:26:43;3.87;;;2.57;;
48002;SDS011;33768;48.578;11.574;2023-02-28T00:29:47;4.67;;;3.20;;
48002;SDS011;33768;48.578;11.574;2023-02-28T00:32:51;4.77;;;2.80;;
48002;SDS011;33768;48.578;11.574;2023-02-28T00:36:02;6.63;;;3.40;;
48002;SDS011;33768;48.578;11.574;2023-02-28T00:39:07;3.73;;;2.73;;
48002;SDS011;33768;48.578;11.574;2023-02-28T00:42:11;4.70;;;3.23;;
48002;SDS011;33768;48.578;11.574;2023-02-28T00:45:15;3.73;;;2.70;;
48002;SDS011;33768;48.578;11.574;2023-02-28T00:48:19;4.57;;;2.70;;
48002;SDS011;33768;48.578;11.574;2023-02-28T00:51:23;5.70;;;2.90;;
48002;SDS011;33768;48.578;11.574;2023-02-28T00:54:28;4.07;;;2.87;;
48002;SDS011;33768;48.578;11.574;2023-02-28T00:57:32;6.83;;;3.57;;
48002;SDS011;33768;48.578;11.574;2023-02-28T01:00:41;6.50;;;3.20;;
48002;SDS011;33768;48.578;11.574;2023-02-28T01:03:49;4.40;;;3.20;;
48002;SDS011;33768;48.578;11.574;2023-02-28T01:06:53;5.10;;;3.10;;
48002;SDS011;33768;48.578;11.574;2023-02-28T01:09:57;4.57;;;2.93;;
48002;SDS011;33768;48.578;11.574;2023-02-28T01:13:02;6.13;;;3.23;;
48002;SDS011;33768;48.578;11.574;2023-02-28T01:16:07;5.40;;;3.30;;
48002;SDS011;33768;48.578;11.574;2023-02-28T01:19:12;6.10;;;3.40;;
48002;SDS011;33768;48.578;11.574;2023-02-28T01:22:16;4.73;;;3.07;;
48002;SDS011;33768;48.578;11.574;2023-02-28T01:25:21;4.47;;;3.20;;
48002;SDS011;33768;48.578;11.574;2023-02-28T01:28:26;4.50;;;2.97;;
48002;SDS011;33768;48.578;11.574;2023-02-28T01:31:30;3.00;;;2.67;;
48002;SDS011;33768;48.578;11.574;2023-02-28T01:34:34;6.37;;;3.40;;
48002;SDS011;33768;48.578;11.574;2023-02-28T01:37:41;5.63;;;3.20;;
48002;SDS011;33768;48.578;11.574;2023-02-28T01:40:45;3.83;;;3.17;;
48002;SDS011;33768;48.578;11.574;2023-02-28T01:46:53;5.70;;;3.30;;
48002;SDS011;33768;48.578;11.574;2023-02-28T01:49:57;5.60;;;3.67;;
48002;SDS011;33768;48.578;11.574;2023-02-28T01:53:04;6.90;;;3.17;;
48002;SDS011;33768;48.578;11.574;2023-02-28T01:56:12;4.10;;;3.03;;
48002;SDS011;33768;48.578;11.574;2023-02-28T01:59:38;6.47;;;3.10;;
48002;SDS011;33768;48.578;11.574;2023-02-28T02:02:51;5.33;;;3.30;;
48002;SDS011;33768;48.578;11.574;2023-02-28T02:05:59;4.63;;;3.03;;
48002;SDS011;33768;48.578;11.574;2023-02-28T02:09:04;5.77;;;3.70;;
48002;SDS011;33768;48.578;11.574;2023-02-28T02:12:13;5.83;;;3.17;;
48002;SDS011;33768;48.578;11.574;2023-02-28T02:15:30;4.13;;;3.13;;
48002;SDS011;33768;48.578;11.574;2023-02-28T02:18:51;6.83;;;3.60;;
48002;SDS011;33768;48.578;11.574;2023-02-28T02:25:28;6.90;;;3.17;;
48002;SDS011;33768;48.578;11.574;2023-02-28T02:35:23;5.00;;;3.30;;
48002;SDS011;33768;48.578;11.574;2023-02-28T02:38:37;4.60;;;3.23;;
48002;SDS011;33768;48.578;11.574;2023-02-28T02:41:53;6.57;;;3.53;;
48002;SDS011;33768;48.578;11.574;2023-02-28T02:45:00;6.30;;;3.67;;
48002;SDS011;33768;48.578;11.574;2023-02-28T02:48:09;6.00;;;3.77;;
48002;SDS011;33768;48.578;11.574;2023-02-28T02:51:17;6.17;;;3.43;;
48002;SDS011;33768;48.578;11.574;2023-02-28T02:54:35;5.13;;;3.57;;
48002;SDS011;33768;48.578;11.574;2023-02-28T02:57:50;5.23;;;3.43;;
48002;SDS011;33768;48.578;11.574;2023-02-28T03:00:59;4.87;;;3.60;;
48002;SDS011;33768;48.578;11.574;2023-02-28T03:04:10;5.70;;;3.33;;
48002;SDS011;33768;48.578;11.574;2023-02-28T03:07:18;5.57;;;3.03;;
48002;SDS011;33768;48.578;11.574;2023-02-28T03:10:31;4.77;;;3.30;;
48002;SDS011;33768;48.578;11.574;2023-02-28T03:20:34;4.43;;;3.33;;
48002;SDS011;33768;48.578;11.574;2023-02-28T03:23:45;5.20;;;3.47;;
48002;SDS011;33768;48.578;11.574;2023-02-28T03:27:03;4.87;;;3.67;;
48002;SDS011;33768;48.578;11.574;2023-02-28T03:30:46;4.60;;;3.53;;
48002;SDS011;33768;48.578;11.574;2023-02-28T03:34:06;5.97;;;3.40;;
48002;SDS011;33768;48.578;11.574;2023-02-28T03:37:17;5.67;;;3.63;;
48002;SDS011;33768;48.578;11.574;2023-02-28T03:40:25;4.10;;;3.17;;
48002;SDS011;33768;48.578;11.574;2023-02-28T03:43:53;5.03;;;3.30;;
48002;SDS011;33768;48.578;11.574;2023-02-28T03:47:31;6.20;;;3.57;;
48002;SDS011;33768;48.578;11.574;2023-02-28T03:50:41;5.47;;;3.50;;
48002;SDS011;33768;48.578;11.574;2023-02-28T03:53:53;5.50;;;3.83;;
48002;SDS011;33768;48.578;11.574;2023-02-28T04:00:19;5.97;;;4.10;;
48002;SDS011;33768;48.578;11.574;2023-02-28T04:03:28;6.70;;;3.90;;
48002;SDS011;33768;48.578;11.574;2023-02-28T04:06:33;6.43;;;3.80;;
48002;SDS011;33768;48.578;11.574;2023-02-28T04:09:38;6.87;;;4.03;;
48002;SDS011;33768;48.578;11.574;2023-02-28T04:12:42;7.70;;;4.20;;
48002;SDS011;33768;48.578;11.574;2023-02-28T04:15:46;4.97;;;4.00;;
48002;SDS011;33768;48.578;11.574;2023-02-28T04:18:50;7.33;;;4.50;;
48002;SDS011;33768;48.578;11.574;2023-02-28T04:21:54;10.33;;;4.90;;
48002;SDS011;33768;48.578;11.574;2023-02-28T04:24:59;8.63;;;4.67;;
48002;SDS011;33768;48.578;11.574;2023-02-28T04:28:03;8.53;;;4.57;;
48002;SDS011;33768;48.578;11.574;2023-02-28T04:31:08;5.27;;;4.10;;
48002;SDS011;33768;48.578;11.574;2023-02-28T04:34:13;6.97;;;4.57;;
48002;SDS011;33768;48.578;11.574;2023-02-28T04:37:17;6.40;;;4.20;;
48002;SDS011;33768;48.578;11.574;2023-02-28T04:40:21;7.23;;;4.43;;
48002;SDS011;33768;48.578;11.574;2023-02-28T04:43:27;8.77;;;5.73;;
48002;SDS011;33768;48.578;11.574;2023-02-28T04:46:31;8.30;;;4.40;;
48002;SDS011;33768;48.578;11.574;2023-02-28T04:49:35;7.00;;;4.73;;
48002;SDS011;33768;48.578;11.574;2023-02-28T04:52:40;6.53;;;4.60;;
48002;SDS011;33768;48.578;11.574;2023-02-28T04:55:44;8.00;;;4.77;;
48002;SDS011;33768;48.578;11.574;2023-02-28T04:58:49;7.50;;;4.57;;
48002;SDS011;33768;48.578;11.574;2023-02-28T05:01:54;6.73;;;4.67;;
48002;SDS011;33768;48.578;11.574;2023-02-28T05:04:58;7.87;;;4.73;;
48002;SDS011;33768;48.578;11.574;2023-02-28T05:08:02;7.67;;;4.80;;
48002;SDS011;33768;48.578;11.574;2023-02-28T05:11:13;8.03;;;5.13;;
48002;SDS011;33768;48.578;11.574;2023-02-28T05:14:19;9.33;;;5.30;;
48002;SDS011;33768;48.578;11.574;2023-02-28T05:17:23;8.27;;;4.97;;
48002;SDS011;33768;48.578;11.574;2023-02-28T05:20:27;11.57;;;4.97;;
48002;SDS011;33768;48.578;11.574;2023-02-28T05:23:32;7.30;;;5.40;;
48002;SDS011;33768;48.578;11.574;2023-02-28T05:26:37;8.17;;;5.57;;
48002;SDS011;33768;48.578;11.574;2023-02-28T05:29:44;6.37;;;5.17;;
48002;SDS011;33768;48.578;11.574;2023-02-28T05:32:49;7.63;;;4.90;;
48002;SDS011;33768;48.578;11.574;2023-02-28T05:35:54;8.57;;;5.33;;
48002;SDS011;33768;48.578;11.574;2023-02-28T05:38:59;10.13;;;5.90;;
48002;SDS011;33768;48.578;11.574;2023-02-28T05:42:03;8.63;;;5.67;;
48002;SDS011;33768;48.578;11.574;2023-02-28T05:45:08;10.17;;;6.03;;
48002;SDS011;33768;48.578;11.574;2023-02-28T05:48:13;9.13;;;5.50;;
48002;SDS011;33768;48.578;11.574;2023-02-28T05:51:43;8.23;;;5.90;;
48002;SDS011;33768;48.578;11.574;2023-02-28T05:54:48;8.20;;;5.47;;
48002;SDS011;33768;48.578;11.574;2023-02-28T05:57:52;9.63;;;5.63;;
48002;SDS011;33768;48.578;11.574;2023-02-28T06:01:00;8.93;;;5.27;;
48002;SDS011;33768;48.578;11.574;2023-02-28T06:04:22;7.87;;;5.10;;
48002;SDS011;33768;48.578;11.574;2023-02-28T06:07:26;7.20;;;5.30;;
48002;SDS011;33768;48.578;11.574;2023-02-28T06:10:30;10.30;;;5.97;;
48002;SDS011;33768;48.578;11.574;2023-02-28T06:13:34;10.13;;;5.90;;
48002;SDS011;33768;48.578;11.574;2023-02-28T06:16:38;11.27;;;6.40;;
48002;SDS011;33768;48.578;11.574;2023-02-28T06:19:43;8.87;;;6.43;;
48002;SDS011;33768;48.578;11.574;2023-02-28T06:22:47;11.27;;;6.17;;
48002;SDS011;33768;48.578;11.574;2023-02-28T06:25:51;9.03;;;5.70;;
48002;SDS011;33768;48.578;11.574;2023-02-28T06:28:56;9.60;;;5.83;;
48002;SDS011;33768;48.578;11.574;2023-02-28T06:32:01;11.67;;;5.93;;
48002;SDS011;33768;48.578;11.574;2023-02-28T06:35:05;14.07;;;7.07;;
48002;SDS011;33768;48.578;11.574;2023-02-28T06:38:09;14.77;;;7.60;;
48002;SDS011;33768;48.578;11.574;2023-02-28T06:41:14;10.03;;;6.23;;
48002;SDS011;33768;48.578;11.574;2023-02-28T06:44:18;11.80;;;5.83;;
48002;SDS011;33768;48.578;11.574;2023-02-28T06:47:23;10.03;;;5.87;;
48002;SDS011;33768;48.578;11.574;2023-02-28T06:50:30;17.33;;;6.60;;
48002;SDS011;33768;48.578;11.574;2023-02-28T06:57:39;16.33;;;7.27;;
48002;SDS011;33768;48.578;11.574;2023-02-28T07:00:44;13.20;;;6.40;;
48002;SDS011;33768;48.578;11.574;2023-02-28T07:03:49;13.73;;;6.93;;
48002;SDS011;33768;48.578;11.574;2023-02-28T07:06:56;13.70;;;6.67;;
48002;SDS011;33768;48.578;11.574;2023-02-28T07:10:00;15.67;;;8.00;;
48002;SDS011;33768;48.578;11.574;2023-02-28T07:13:05;9.93;;;5.97;;
48002;SDS011;33768;48.578;11.574;2023-02-28T07:16:10;16.60;;;7.80;;
48002;SDS011;33768;48.578;11.574;2023-02-28T07:19:15;12.33;;;6.53;;
48002;SDS011;33768;48.578;11.574;2023-02-28T07:22:19;16.43;;;7.60;;
48002;SDS011;33768;48.578;11.574;2023-02-28T07:25:24;10.50;;;5.93;;
48002;SDS011;33768;48.578;11.574;2023-02-28T07:28:29;11.97;;;6.97;;
48002;SDS011;33768;48.578;11.574;2023-02-28T07:31:33;12.50;;;6.93;;
48002;SDS011;33768;48.578;11.574;2023-02-28T07:34:37;13.87;;;6.60;;
48002;SDS011;33768;48.578;11.574;2023-02-28T07:37:42;10.57;;;6.07;;
48002;SDS011;33768;48.578;11.574;2023-02-28T07:40:46;13.30;;;6.70;;
48002;SDS011;33768;48.578;11.574;2023-02-28T07:43:53;10.03;;;6.20;;
48002;SDS011;33768;48.578;11.574;2023-02-28T07:46:58;11.17;;;7.13;;
48002;SDS011;33768;48.578;11.574;2023-02-28T07:50:02;20.50;;;7.50;;
48002;SDS011;33768;48.578;11.574;2023-02-28T07:53:07;10.27;;;6.67;;
48002;SDS011;33768;48.578;11.574;2023-02-28T07:56:11;12.37;;;6.60;;
48002;SDS011;33768;48.578;11.574;2023-02-28T07:59:15;9.43;;;6.87;;
48002;SDS011;33768;48.578;11.574;2023-02-28T08:02:19;11.53;;;6.70;;
48002;SDS011;33768;48.578;11.574;2023-02-28T08:05:23;12.17;;;7.00;;
48002;SDS011;33768;48.578;11.574;2023-02-28T08:08:27;12.93;;;7.40;;
48002;SDS011;33768;48.578;11.574;2023-02-28T08:11:34;9.50;;;5.97;;
48002;SDS011;33768;48.578;11.574;2023-02-28T08:14:40;14.40;;;7.50;;
48002;SDS011;33768;48.578;11.574;2023-02-28T08:17:44;11.23;;;6.57;;
48002;SDS011;33768;48.578;11.574;2023-02-28T08:20:48;12.70;;;6.83;;
48002;SDS011;33768;48.578;11.574;2023-02-28T08:23:52;9.70;;;5.70;;
48002;SDS011;33768;48.578;11.574;2023-02-28T08:26:56;10.47;;;5.70;;
48002;SDS011;33768;48.578;11.574;2023-02-28T08:30:01;14.03;;;7.30;;
48002;SDS011;33768;48.578;11.574;2023-02-28T08:33:15;10.97;;;6.30;;
48002;SDS011;33768;48.578;11.574;2023-02-28T08:36:28;12.20;;;6.07;;
48002;SDS011;33768;48.578;11.574;2023-02-28T08:39:35;12.23;;;7.03;;
48002;SDS011;33768;48.578;11.574;2023-02-28T08:42:40;9.00;;;5.53;;
48002;SDS011;33768;48.578;11.574;2023-02-28T08:45:44;11.67;;;6.50;;
48002;SDS011;33768;48.578;11.574;2023-02-28T08:48:51;9.23;;;6.37;;
48002;SDS011;33768;48.578;11.574;2023-02-28T08:51:56;8.97;;;6.10;;
48002;SDS011;33768;48.578;11.574;2023-02-28T08:55:01;11.13;;;6.17;;
48002;SDS011;33768;48.578;11.574;2023-02-28T08:58:05;10.37;;;6.17;;
48002;SDS011;33768;48.578;11.574;2023-02-28T09:04:15;9.67;;;6.70;;
48002;SDS011;33768;48.578;11.574;2023-02-28T09:07:19;10.93;;;6.27;;
48002;SDS011;33768;48.578;11.574;2023-02-28T09:10:23;14.67;;;6.53;;
48002;SDS011;33768;48.578;11.574;2023-02-28T09:13:28;11.03;;;6.43;;
48002;SDS011;33768;48.578;11.574;2023-02-28T09:16:34;8.50;;;6.13;;
48002;SDS011;33768;48.578;11.574;2023-02-28T09:19:38;9.03;;;6.23;;
48002;SDS011;33768;48.578;11.574;2023-02-28T09:22:42;11.67;;;6.47;;
48002;SDS011;33768;48.578;11.574;2023-02-28T09:25:55;11.50;;;6.03;;
48002;SDS011;33768;48.578;11.574;2023-02-28T09:29:00;8.23;;;6.00;;
48002;SDS011;33768;48.578;11.574;2023-02-28T09:32:06;10.43;;;5.70;;
48002;SDS011;33768;48.578;11.574;2023-02-28T09:35:10;9.83;;;5.70;;
48002;SDS011;33768;48.578;11.574;2023-02-28T09:38:17;8.90;;;5.67;;
48002;SDS011;33768;48.578;11.574;2023-02-28T09:41:23;9.87;;;6.17;;
48002;SDS011;33768;48.578;11.574;2023-02-28T09:44:33;11.60;;;6.47;;
48002;SDS011;33768;48.578;11.574;2023-02-28T09:47:41;10.93;;;6.67;;
48002;SDS011;33768;48.578;11.574;2023-02-28T09:50:52;8.47;;;5.77;;
48002;SDS011;33768;48.578;11.574;2023-02-28T09:54:01;8.90;;;5.63;;
48002;SDS011;33768;48.578;11.574;2023-02-28T09:57:13;9.53;;;6.33;;
48002;SDS011;33768;48.578;11.574;2023-02-28T10:00:33;15.47;;;6.53;;
48002;SDS011;33768;48.578;11.574;2023-02-28T10:03:43;12.57;;;6.23;;
48002;SDS011;33768;48.578;11.574;2023-02-28T10:06:53;9.63;;;6.40;;
48002;SDS011;33768;48.578;11.574;2023-02-28T10:09:58;9.20;;;6.53;;
48002;SDS011;33768;48.578;11.574;2023-02-28T10:13:15;11.23;;;6.10;;
48002;SDS011;33768;48.578;11.574;2023-02-28T10:16:29;11.63;;;6.23;;
48002;SDS011;33768;48.578;11.574;2023-02-28T10:19:44;8.03;;;5.77;;
48002;SDS011;33768;48.578;11.574;2023-02-28T10:23:14;9.70;;;5.93;;
48002;SDS011;33768;48.578;11.574;2023-02-28T10:26:24;9.20;;;6.17;;
48002;SDS011;33768;48.578;11.574;2023-02-28T10:29:31;10.03;;;5.80;;
48002;SDS011;33768;48.578;11.574;2023-02-28T10:32:37;8.43;;;5.87;;
48002;SDS011;33768;48.578;11.574;2023-02-28T10:35:42;8.37;;;5.47;;
48002;SDS011;33768;48.578;11.574;2023-02-28T10:38:46;10.80;;;6.17;;
48002;SDS011;33768;48.578;11.574;2023-02-28T10:41:51;12.13;;;6.83;;
48002;SDS011;33768;48.578;11.574;2023-02-28T10:45:06;9.57;;;6.60;;
48002;SDS011;33768;48.578;11.574;2023-02-28T10:51:24;15.23;;;7.87;;
48002;SDS011;33768;48.578;11.574;2023-02-28T10:57:38;9.30;;;6.07;;
48002;SDS011;33768;48.578;11.574;2023-02-28T11:00:43;9.93;;;6.03;;
48002;SDS011;33768;48.578;11.574;2023-02-28T11:03:47;8.73;;;5.83;;
48002;SDS011;33768;48.578;11.574;2023-02-28T11:06:56;9.17;;;6.30;;
48002;SDS011;33768;48.578;11.574;2023-02-28T11:10:05;11.20;;;6.33;;
48002;SDS011;33768;48.578;11.574;2023-02-28T11:13:16;9.87;;;6.00;;
48002;SDS011;33768;48.578;11.574;2023-02-28T11:16:22;9.73;;;6.23;;
48002;SDS011;33768;48.578;11.574;2023-02-28T11:19:43;11.30;;;6.67;;
48002;SDS011;33768;48.578;11.574;2023-02-28T11:22:49;11.37;;;6.70;;
48002;SDS011;33768;48.578;11.574;2023-02-28T11:25:56;10.70;;;6.33;;
48002;SDS011;33768;48.578;11.574;2023-02-28T11:29:16;9.53;;;6.40;;
48002;SDS011;33768;48.578;11.574;2023-02-28T11:32:23;11.53;;;6.63;;
48002;SDS011;33768;48.578;11.574;2023-02-28T11:35:33;8.37;;;5.70;;
48002;SDS011;33768;48.578;11.574;2023-02-28T11:38:42;10.77;;;6.60;;
48002;SDS011;33768;48.578;11.574;2023-02-28T11:48:41;7.90;;;5.67;;
48002;SDS011;33768;48.578;11.574;2023-02-28T12:05:18;8.03;;;6.07;;
48002;SDS011;33768;48.578;11.574;2023-02-28T12:11:53;9.00;;;6.90;;
48002;SDS011;33768;48.578;11.574;2023-02-28T12:25:28;7.43;;;5.40;;
48002;SDS011;33768;48.578;11.574;2023-02-28T12:28:47;9.27;;;5.77;;
48002;SDS011;33768;48.578;11.574;2023-02-28T12:35:25;7.67;;;5.83;;
48002;SDS011;33768;48.578;11.574;2023-02-28T12:38:55;7.73;;;5.97;;
48002;SDS011;33768;48.578;11.574;2023-02-28T12:42:05;8.90;;;6.80;;
48002;SDS011;33768;48.578;11.574;2023-02-28T12:45:27;8.83;;;5.67;;
48002;SDS011;33768;48.578;11.574;2023-02-28T12:48:55;13.03;;;5.33;;
48002;SDS011;33768;48.578;11.574;2023-02-28T12:52:02;10.07;;;6.83;;
48002;SDS011;33768;48.578;11.574;2023-02-28T12:55:15;10.07;;;5.90;;
48002;SDS011;33768;48.578;11.574;2023-02-28T13:09:14;11.37;;;6.20;;
48002;SDS011;33768;48.578;11.574;2023-02-28T13:12:19;10.93;;;6.83;;
48002;SDS011;33768;48.578;11.574;2023-02-28T13:15:27;12.23;;;6.63;;
48002;SDS011;33768;48.578;11.574;2023-02-28T13:18:33;9.37;;;6.53;;
48002;SDS011;33768;48.578;11.574;2023-02-28T13:21:42;8.67;;;6.40;;
48002;SDS011;33768;48.578;11.574;2023-02-28T13:24:54;7.43;;;6.07;;
48002;SDS011;33768;48.578;11.574;2023-02-28T13:28:00;8.83;;;6.40;;
48002;SDS011;33768;48.578;11.574;2023-02-28T13:31:07;7.97;;;5.83;;
48002;SDS011;33768;48.578;11.574;2023-02-28T13:34:13;9.43;;;6.27;;
48002;SDS011;33768;48.578;11.574;2023-02-28T13:40:27;9.37;;;6.43;;
48002;SDS011;33768;48.578;11.574;2023-02-28T13:44:14;9.20;;;6.37;;
48002;SDS011;33768;48.578;11.574;2023-02-28T13:47:34;8.50;;;6.10;;
48002;SDS011;33768;48.578;11.574;2023-02-28T13:50:39;11.07;;;7.13;;
48002;SDS011;33768;48.578;11.574;2023-02-28T13:53:49;9.97;;;6.57;;
48002;SDS011;33768;48.578;11.574;2023-02-28T14:19:46;11.83;;;6.37;;
48002;SDS011;33768;48.578;11.574;2023-02-28T14:33:43;13.13;;;7.00;;
48002;SDS011;33768;48.578;11.574;2023-02-28T14:37:01;9.37;;;5.93;;
48002;SDS011;33768;48.578;11.574;2023-02-28T14:40:49;9.80;;;6.30;;
48002;SDS011;33768;48.578;11.574;2023-02-28T14:44:26;9.80;;;6.37;;
48002;SDS011;33768;48.578;11.574;2023-02-28T14:47:32;10.80;;;6.67;;
48002;SDS011;33768;48.578;11.574;2023-02-28T15:25:43;10.20;;;6.70;;
48002;SDS011;33768;48.578;11.574;2023-02-28T15:28:49;10.83;;;7.10;;
48002;SDS011;33768;48.578;11.574;2023-02-28T15:32:06;12.87;;;7.33;;
48002;SDS011;33768;48.578;11.574;2023-02-28T15:38:29;10.33;;;6.63;;
48002;SDS011;33768;48.578;11.574;2023-02-28T15:41:38;12.50;;;7.20;;
48002;SDS011;33768;48.578;11.574;2023-02-28T15:44:54;13.70;;;7.37;;
48002;SDS011;33768;48.578;11.574;2023-02-28T15:48:16;8.17;;;6.27;;
48002;SDS011;33768;48.578;11.574;2023-02-28T15:52:09;11.73;;;7.10;;
48002;SDS011;33768;48.578;11.574;2023-02-28T15:55:27;10.10;;;6.33;;
48002;SDS011;33768;48.578;11.574;2023-02-28T15:58:34;8.90;;;6.50;;
48002;SDS011;33768;48.578;11.574;2023-02-28T16:05:30;12.90;;;8.40;;
48002;SDS011;33768;48.578;11.574;2023-02-28T16:08:47;11.67;;;7.23;;
48002;SDS011;33768;48.578;11.574;2023-02-28T16:11:54;11.90;;;6.70;;
48002;SDS011;33768;48.578;11.574;2023-02-28T16:15:24;9.07;;;6.70;;
48002;SDS011;33768;48.578;11.574;2023-02-28T16:18:36;15.27;;;7.10;;
48002;SDS011;33768;48.578;11.574;2023-02-28T16:21:47;13.17;;;8.10;;
48002;SDS011;33768;48.578;11.574;2023-02-28T16:25:12;14.33;;;7.90;;
48002;SDS011;33768;48.578;11.574;2023-02-28T16:28:25;11.60;;;7.20;;
48002;SDS011;33768;48.578;11.574;2023-02-28T16:31:37;15.93;;;9.27;;
48002;SDS011;33768;48.578;11.574;2023-02-28T16:34:42;14.93;;;9.47;;
48002;SDS011;33768;48.578;11.574;2023-02-28T16:37:47;15.23;;;8.93;;
48002;SDS011;33768;48.578;11.574;2023-02-28T16:40:53;13.40;;;9.40;;
48002;SDS011;33768;48.578;11.574;2023-02-28T16:44:00;14.37;;;9.10;;
48002;SDS011;33768;48.578;11.574;2023-02-28T16:47:05;15.13;;;7.87;;
48002;SDS011;33768;48.578;11.574;2023-02-28T16:50:13;9.90;;;6.80;;
48002;SDS011;33768;48.578;11.574;2023-02-28T16:53:19;14.17;;;8.60;;
48002;SDS011;33768;48.578;11.574;2023-02-28T16:56:24;11.10;;;7.07;;
48002;SDS011;33768;48.578;11.574;2023-02-28T16:59:30;16.90;;;7.67;;
48002;SDS011;33768;48.578;11.574;2023-02-28T17:02:34;13.37;;;7.87;;
48002;SDS011;33768;48.578;11.574;2023-02-28T17:05:39;12.33;;;7.73;;
48002;SDS011;33768;48.578;11.574;2023-02-28T17:08:43;13.10;;;7.90;;
48002;SDS011;33768;48.578;11.574;2023-02-28T17:11:48;12.83;;;8.13;;
48002;SDS011;33768;48.578;11.574;2023-02-28T17:14:52;11.30;;;8.43;;
48002;SDS011;33768;48.578;11.574;2023-02-28T17:17:56;15.70;;;8.50;;
48002;SDS011;33768;48.578;11.574;2023-02-28T17:21:01;12.70;;;8.50;;
48002;SDS011;33768;48.578;11.574;2023-02-28T17:24:05;12.93;;;8.63;;
48002;SDS011;33768;48.578;11.574;2023-02-28T17:27:11;11.47;;;8.13;;
48002;SDS011;33768;48.578;11.574;2023-02-28T17:30:17;14.70;;;8.83;;
48002;SDS011;33768;48.578;11.574;2023-02-28T17:33:24;18.23;;;8.37;;
48002;SDS011;33768;48.578;11.574;2023-02-28T17:36:28;12.57;;;8.37;;
48002;SDS011;33768;48.578;11.574;2023-02-28T17:39:33;12.73;;;8.27;;
48002;SDS011;33768;48.578;11.574;2023-02-28T17:42:37;17.53;;;8.63;;
48002;SDS011;33768;48.578;11.574;2023-02-28T17:59:55;13.40;;;8.43;;
48002;SDS011;33768;48.578;11.574;2023-02-28T18:02:59;14.70;;;8.93;;
48002;SDS011;33768;48.578;11.574;2023-02-28T18:06:04;15.47;;;8.87;;
48002;SDS011;33768;48.578;11.574;2023-02-28T18:09:10;15.03;;;8.77;;
48002;SDS011;33768;48.578;11.574;2023-02-28T18:12:14;12.97;;;8.40;;
48002;SDS011;33768;48.578;11.574;2023-02-28T18:15:19;12.77;;;8.93;;
48002;SDS011;33768;48.578;11.574;2023-02-28T18:18:24;14.97;;;9.80;;
48002;SDS011;33768;48.578;11.574;2023-02-28T18:21:28;14.60;;;9.20;;
48002;SDS011;33768;48.578;11.574;2023-02-28T18:24:33;15.30;;;9.33;;
48002;SDS011;33768;48.578;11.574;2023-02-28T18:27:38;15.33;;;9.90;;
48002;SDS011;33768;48.578;11.574;2023-02-28T18:30:43;15.80;;;9.60;;
48002;SDS011;33768;48.578;11.574;2023-02-28T18:33:50;17.03;;;9.60;;
48002;SDS011;33768;48.578;11.574;2023-02-28T18:36:56;23.73;;;12.70;;
48002;SDS011;33768;48.578;11.574;2023-02-28T18:40:00;16.30;;;10.27;;
48002;SDS011;33768;48.578;11.574;2023-02-28T18:43:04;22.07;;;12.30;;
48002;SDS011;33768;48.578;11.574;2023-02-28T18:46:11;22.93;;;10.00;;
48002;SDS011;33768;48.578;11.574;2023-02-28T18:49:18;15.80;;;9.53;;
48002;SDS011;33768;48.578;11.574;2023-02-28T18:52:22;14.30;;;8.60;;
48002;SDS011;33768;48.578;11.574;2023-02-28T18:55:26;13.43;;;8.73;;
48002;SDS011;33768;48.578;11.574;2023-02-28T18:58:31;18.27;;;9.67;;
48002;SDS011;33768;48.578;11.574;2023-02-28T19:01:36;17.80;;;10.17;;
48002;SDS011;33768;48.578;11.574;2023-02-28T19:04:40;16.07;;;10.17;;
48002;SDS011;33768;48.578;11.574;2023-02-28T19:07:44;13.57;;;9.70;;
48002;SDS011;33768;48.578;11.574;2023-02-28T19:10:51;14.23;;;9.60;;
48002;SDS011;33768;48.578;11.574;2023-02-28T19:13:56;15.87;;;10.13;;
48002;SDS011;33768;48.578;11.574;2023-02-28T19:17:00;17.27;;;10.17;;
48002;SDS011;33768;48.578;11.574;2023-02-28T19:20:04;15.80;;;9.37;;
48002;SDS011;33768;48.578;11.574;2023-02-28T19:23:09;16.60;;;9.77;;
48002;SDS011;33768;48.578;11.574;2023-02-28T19:26:17;16.53;;;9.47;;
48002;SDS011;33768;48.578;11.574;2023-02-28T19:29:26;15.37;;;10.10;;
48002;SDS011;33768;48.578;11.574;2023-02-28T19:32:30;16.17;;;10.43;;
48002;SDS011;33768;48.578;11.574;2023-02-28T19:35:35;13.13;;;9.53;;
48002;SDS011;33768;48.578;11.574;2023-02-28T19:38:43;15.83;;;10.20;;
48002;SDS011;33768;48.578;11.574;2023-02-28T19:41:47;20.97;;;11.37;;
48002;SDS011;33768;48.578;11.574;2023-02-28T19:44:52;17.03;;;11.37;;
48002;SDS011;33768;48.578;11.574;2023-02-28T19:47:56;21.10;;;11.37;;
48002;SDS011;33768;48.578;11.574;2023-02-28T19:51:01;18.37;;;11.03;;
48002;SDS011;33768;48.578;11.574;2023-02-28T19:54:08;17.27;;;11.07;;
48002;SDS011;33768;48.578;11.574;2023-02-28T19:57:12;19.33;;;11.30;;
48002;SDS011;33768;48.578;11.574;2023-02-28T20:00:17;17.83;;;10.70;;
48002;SDS011;33768;48.578;11.574;2023-02-28T20:03:22;15.73;;;10.60;;
48002;SDS011;33768;48.578;11.574;2023-02-28T20:06:27;16.40;;;11.37;;
48002;SDS011;33768;48.578;11.574;2023-02-28T20:09:34;18.57;;;11.70;;
48002;SDS011;33768;48.578;11.574;2023-02-28T20:12:38;16.93;;;11.00;;
48002;SDS011;33768;48.578;11.574;2023-02-28T20:15:43;17.67;;;11.30;;
48002;SDS011;33768;48.578;11.574;2023-02-28T20:18:48;16.73;;;10.37;;
48002;SDS011;33768;48.578;11.574;2023-02-28T20:21:54;18.03;;;11.53;;
48002;SDS011;33768;48.578;11.574;2023-02-28T20:24:58;17.87;;;10.40;;
48002;SDS011;33768;48.578;11.574;2023-02-28T20:28:02;17.27;;;11.33;;
48002;SDS011;33768;48.578;11.574;2023-02-28T20:31:14;17.77;;;11.53;;
48002;SDS011;33768;48.578;11.574;2023-02-28T20:34:20;18.50;;;11.67;;
48002;SDS011;33768;48.578;11.574;2023-02-28T20:37:26;19.90;;;11.43;;
48002;SDS011;33768;48.578;11.574;2023-02-28T20:40:30;17.13;;;11.20;;
48002;SDS011;33768;48.578;11.574;2023-02-28T20:43:34;19.00;;;11.00;;
48002;SDS011;33768;48.578;11.574;2023-02-28T20:46:39;18.40;;;10.63;;
48002;SDS011;33768;48.578;11.574;2023-02-28T20:49:46;19.83;;;12.57;;
48002;SDS011;33768;48.578;11.574;2023-02-28T20:52:50;17.63;;;11.10;;
48002;SDS011;33768;48.578;11.574;2023-02-28T20:58:59;19.03;;;11.97;;
48002;SDS011;33768;48.578;11.574;2023-02-28T21:02:04;20.27;;;11.60;;
48002;SDS011;33768;48.578;11.574;2023-02-28T21:05:09;17.70;;;11.13;;
48002;SDS011;33768;48.578;11.574;2023-02-28T21:08:13;19.40;;;11.60;;
48002;SDS011;33768;48.578;11.574;2023-02-28T21:11:27;16.77;;;11.03;;
48002;SDS011;33768;48.578;11.574;2023-02-28T21:14:33;16.47;;;10.70;;
48002;SDS011;33768;48.578;11.574;2023-02-28T21:17:37;16.03;;;10.97;;
48002;SDS011;33768;48.578;11.574;2023-02-28T21:20:42;18.90;;;10.97;;
48002;SDS011;33768;48.578;11.574;2023-02-28T21:23:46;18.80;;;11.73;;
48002;SDS011;33768;48.578;11.574;2023-02-28T21:26:51;18.30;;;12.00;;